sensor_id;sensor_type;location;lat;lon;timestamp;pressure;altitude;pressure_sealevel;temperature;humidity
31011;BME280;26395;53.412;19.598;2023-07-31T00:11:50;99667.03;;;19.68;100.00
31011;BME280;26395;53.412;19.598;2023-07-31T00:26:53;99664.77;;;19.93;100.00
31011;BME280;26395;53.412;19.598;2023-07-31T00:41:57;99663.57;;;19.91;100.00
31011;BME280;26395;53.412;19.598;2023-07-31T00:57:00;99665.98;;;19.65;100.00
31011;BME280;26395;53.412;19.598;2023-07-31T01:12:06;99674.36;;;19.51;100.00
31011;BME280;26395;53.412;19.598;2023-07-31T01:27:15;99667.69;;;19.54;100.00
31011;BME280;26395;53.412;19.598;2023-07-31T01:42:21;99669.91;;;19.93;100.00
31011;BME280;26395;53.412;19.598;2023-07-31T01:57:24;99673.88;;;19.78;100.00
31011;BME280;26395;53.412;19.598;2023-07-31T02:12:27;99677.31;;;19.72;100.00
31011;BME280;26395;53.412;19.598;2023-07-31T02:27:33;99679.80;;;19.69;99.86
31011;BME280;26395;53.412;19.598;2023-07-31T02:42:37;99673.61;;;19.62;98.98
31011;BME280;26395;53.412;19.598;2023-07-31T02:57:40;99681.75;;;19.64;98.83
31011;BME280;26395;53.412;19.598;2023-07-31T03:12:46;99678.73;;;19.62;99.43
31011;BME280;26395;53.412;19.598;2023-07-31T03:27:50;99689.42;;;19.53;99.72
31011;BME280;26395;53.412;19.598;2023-07-31T03:42:54;99711.39;;;19.53;100.00
31011;BME280;26395;53.412;19.598;2023-07-31T03:57:57;99714.25;;;19.60;99.94
31011;BME280;26395;53.412;19.598;2023-07-31T04:13:00;99728.39;;;19.72;99.20
31011;BME280;26395;53.412;19.598;2023-07-31T04:28:04;99745.76;;;19.89;97.77
31011;BME280;26395;53.412;19.598;2023-07-31T04:43:07;99745.12;;;20.11;94.79
31011;BME280;26395;53.412;19.598;2023-07-31T04:58:10;99762.09;;;20.35;91.83
31011;BME280;26395;53.412;19.598;2023-07-31T05:13:14;99767.77;;;20.74;89.99
31011;BME280;26395;53.412;19.598;2023-07-31T05:28:17;99767.52;;;20.81;88.78
31011;BME280;26395;53.412;19.598;2023-07-31T05:43:22;99772.87;;;21.44;86.69
31011;BME280;26395;53.412;19.598;2023-07-31T05:58:25;99779.94;;;23.88;79.80
31011;BME280;26395;53.412;19.598;2023-07-31T06:13:28;99784.05;;;26.68;70.90
31011;BME280;26395;53.412;19.598;2023-07-31T06:28:32;99795.84;;;26.24;66.37
31011;BME280;26395;53.412;19.598;2023-07-31T06:43:35;99796.58;;;26.38;65.94
31011;BME280;26395;53.412;19.598;2023-07-31T06:58:39;99804.50;;;26.55;64.90
31011;BME280;26395;53.412;19.598;2023-07-31T07:13:42;99806.42;;;26.16;64.24
31011;BME280;26395;53.412;19.598;2023-07-31T07:28:45;99806.78;;;26.35;64.11
31011;BME280;26395;53.412;19.598;2023-07-31T07:43:50;99792.85;;;27.01;61.98
31011;BME280;26395;53.412;19.598;2023-07-31T07:58:54;99801.09;;;26.83;60.42
31011;BME280;26395;53.412;19.598;2023-07-31T08:13:58;99805.46;;;26.80;59.38
31011;BME280;26395;53.412;19.598;2023-07-31T08:29:01;99804.17;;;27.59;57.16
31011;BME280;26395;53.412;19.598;2023-07-31T08:44:06;99801.77;;;28.14;56.14
31011;BME280;26395;53.412;19.598;2023-07-31T08:59:11;99788.16;;;27.83;54.76
31011;BME280;26395;53.412;19.598;2023-07-31T09:14:17;99781.65;;;28.74;54.56
31011;BME280;26395;53.412;19.598;2023-07-31T09:29:21;99772.04;;;28.66;52.57
31011;BME280;26395;53.412;19.598;2023-07-31T09:44:38;99767.88;;;28.82;52.16
31011;BME280;26395;53.412;19.598;2023-07-31T09:59:44;99753.60;;;28.85;51.86
31011;BME280;26395;53.412;19.598;2023-07-31T10:14:48;99751.05;;;28.87;52.13
31011;BME280;26395;53.412;19.598;2023-07-31T10:29:53;99741.98;;;29.04;51.57
31011;BME280;26395;53.412;19.598;2023-07-31T10:45:08;99731.23;;;28.79;51.68
31011;BME280;26395;53.412;19.598;2023-07-31T11:00:21;99725.38;;;27.85;53.37
31011;BME280;26395;53.412;19.598;2023-07-31T11:15:27;99713.06;;;27.85;52.34
31011;BME280;26395;53.412;19.598;2023-07-31T11:30:31;99710.45;;;27.23;52.65
31011;BME280;26395;53.412;19.598;2023-07-31T11:45:35;99697.81;;;28.15;52.79
31011;BME280;26395;53.412;19.598;2023-07-31T12:00:38;99677.71;;;26.88;53.24
31011;BME280;26395;53.412;19.598;2023-07-31T12:15:43;99670.10;;;25.32;56.79
31011;BME280;26395;53.412;19.598;2023-07-31T12:30:47;99707.20;;;24.16;66.05
31011;BME280;26395;53.412;19.598;2023-07-31T12:45:50;99735.19;;;21.92;86.58
31011;BME280;26395;53.412;19.598;2023-07-31T13:00:54;99727.86;;;21.98;89.27
31011;BME280;26395;53.412;19.598;2023-07-31T13:15:58;99691.14;;;22.19;88.13
31011;BME280;26395;53.412;19.598;2023-07-31T13:31:02;99667.45;;;22.24;85.02
31011;BME280;26395;53.412;19.598;2023-07-31T13:46:05;99649.33;;;22.69;80.17
31011;BME280;26395;53.412;19.598;2023-07-31T14:01:10;99640.20;;;22.64;77.74
31011;BME280;26395;53.412;19.598;2023-07-31T14:16:14;99629.61;;;22.66;75.56
31011;BME280;26395;53.412;19.598;2023-07-31T14:31:17;99618.54;;;23.12;73.10
31011;BME280;26395;53.412;19.598;2023-07-31T14:46:21;99613.58;;;23.32;72.83
31011;BME280;26395;53.412;19.598;2023-07-31T15:01:25;99614.27;;;23.20;75.13
31011;BME280;26395;53.412;19.598;2023-07-31T15:16:29;99608.77;;;22.96;75.66
31011;BME280;26395;53.412;19.598;2023-07-31T15:31:41;99598.94;;;23.28;75.21
31011;BME280;26395;53.412;19.598;2023-07-31T15:46:47;99590.20;;;23.68;73.97
31011;BME280;26395;53.412;19.598;2023-07-31T16:01:51;99573.93;;;23.62;74.99
31011;BME280;26395;53.412;19.598;2023-07-31T16:16:56;99569.65;;;23.44;75.57
31011;BME280;26395;53.412;19.598;2023-07-31T16:31:59;99566.60;;;23.00;77.67
31011;BME280;26395;53.412;19.598;2023-07-31T16:47:03;99575.27;;;22.83;78.95
31011;BME280;26395;53.412;19.598;2023-07-31T17:02:07;99587.15;;;22.48;81.87
31011;BME280;26395;53.412;19.598;2023-07-31T17:17:11;99592.68;;;22.46;83.14
31011;BME280;26395;53.412;19.598;2023-07-31T17:32:14;99594.21;;;22.58;83.18
31011;BME280;26395;53.412;19.598;2023-07-31T17:47:19;99576.36;;;22.63;83.04
31011;BME280;26395;53.412;19.598;2023-07-31T18:02:23;99561.22;;;22.77;82.59
31011;BME280;26395;53.412;19.598;2023-07-31T18:17:26;99557.94;;;22.51;83.50
31011;BME280;26395;53.412;19.598;2023-07-31T18:32:32;99563.23;;;22.25;85.54
31011;BME280;26395;53.412;19.598;2023-07-31T18:47:51;99562.51;;;22.81;84.05
31011;BME280;26395;53.412;19.598;2023-07-31T19:02:55;99568.17;;;22.70;83.94
31011;BME280;26395;53.412;19.598;2023-07-31T19:18:00;99559.40;;;22.12;87.02
31011;BME280;26395;53.412;19.598;2023-07-31T19:33:04;99529.47;;;22.08;87.10
31011;BME280;26395;53.412;19.598;2023-07-31T19:48:09;99520.83;;;22.87;83.44
31011;BME280;26395;53.412;19.598;2023-07-31T20:03:14;99510.20;;;22.68;82.89
31011;BME280;26395;53.412;19.598;2023-07-31T20:18:18;99493.77;;;22.44;85.16
31011;BME280;26395;53.412;19.598;2023-07-31T20:33:21;99480.66;;;21.72;89.44
31011;BME280;26395;53.412;19.598;2023-07-31T20:48:25;99456.39;;;21.83;90.12
31011;BME280;26395;53.412;19.598;2023-07-31T21:03:29;99449.02;;;22.08;88.31
31011;BME280;26395;53.412;19.598;2023-07-31T21:18:34;99424.85;;;22.42;86.13
31011;BME280;26395;53.412;19.598;2023-07-31T21:33:37;99414.42;;;22.30;86.02
31011;BME280;26395;53.412;19.598;2023-07-31T21:48:41;99408.56;;;21.88;88.57
31011;BME280;26395;53.412;19.598;2023-07-31T22:03:44;99413.30;;;21.74;89.27
31011;BME280;26395;53.412;19.598;2023-07-31T22:18:48;99405.60;;;21.52;90.90
31011;BME280;26395;53.412;19.598;2023-07-31T22:33:51;99382.42;;;21.42;91.24
31011;BME280;26395;53.412;19.598;2023-07-31T22:48:55;99365.16;;;22.00;88.26
31011;BME280;26395;53.412;19.598;2023-07-31T23:03:58;99349.34;;;21.80;88.58
31011;BME280;26395;53.412;19.598;2023-07-31T23:19:01;99328.48;;;21.86;87.92
31011;BME280;26395;53.412;19.598;2023-07-31T23:34:05;99315.93;;;22.05;86.90
31011;BME280;26395;53.412;19.598;2023-07-31T23:49:08;99308.56;;;21.76;87.71
